Time;durP1;ratioP1;P1;durP2;ratioP2;P2;SDS_P1;SDS_P2;PMS_P1;PMS_P2;Temp;Humidity;BMP_temperature;BMP_pressure;BME280_temperature;BME280_humidity;BME280_pressure;Samples;Min_cycle;Max_cycle;Signal;HPM_P1;HPM_P2
2024/01/27 00:00:35;;;;;;;;;;;;;;;3.99;100.00;103446.25;5108433;28;19920;-71
2024/01/27 00:03:00;;;;;;;;;;;;;;;4.00;100.00;103450.59;5111976;28;19915;-71
2024/01/27 00:05:25;;;;;;;;;;;;;;;3.93;100.00;103448.66;5113302;28;20382;-71
2024/01/27 00:07:51;;;;;;;;;;;;;;;3.96;100.00;103451.34;5102254;27;19962;-71
2024/01/27 00:10:16;;;;;;;;;;;;;;;3.96;100.00;103452.22;5111072;28;20135;-71
2024/01/27 00:12:41;;;;;;;;;;;;;;;4.01;100.00;103457.56;5111852;28;19915;-71
2024/01/27 00:15:07;;;;;;;;;;;;;;;4.01;100.00;103448.03;5110460;28;19942;-70
2024/01/27 00:17:34;;;;;;;;;;;;;;;3.98;100.00;103454.84;5110107;28;20314;-71
2024/01/27 00:19:59;;;;;;;;;;;;;;;3.95;100.00;103454.78;5115666;28;20002;-71
2024/01/27 00:22:24;;;;;;;;;;;;;;;3.96;100.00;103457.41;5120537;28;19928;-71
2024/01/27 00:24:50;;;;;;;;;;;;;;;4.04;100.00;103453.31;5122794;28;20211;-70
2024/01/27 00:27:15;;;;;;;;;;;;;;;4.08;100.00;103448.25;5126030;28;20107;-70
2024/01/27 00:29:40;;;;;;;;;;;;;;;4.05;100.00;103451.59;5129149;28;19915;-70
2024/01/27 00:32:05;;;;;;;;;;;;;;;4.02;100.00;103449.81;5120968;28;20211;-70
2024/01/27 00:34:31;;;;;;;;;;;;;;;4.04;100.00;103449.88;5120321;28;20233;-70
2024/01/27 00:36:56;;;;;;;;;;;;;;;4.03;100.00;103451.56;5129372;28;20203;-71
2024/01/27 00:39:22;;;;;;;;;;;;;;;4.07;100.00;103451.66;5123493;27;19930;-71
2024/01/27 00:41:47;;;;;;;;;;;;;;;4.10;100.00;103449.16;5129201;27;20297;-70
2024/01/27 00:44:13;;;;;;;;;;;;;;;4.01;100.00;103455.81;5125773;27;19927;-70
2024/01/27 00:46:38;;;;;;;;;;;;;;;4.02;100.00;103460.19;5118729;28;19916;-70
2024/01/27 00:49:03;;;;;;;;;;;;;;;4.03;100.00;103459.34;5111936;28;19923;-70
2024/01/27 00:51:28;;;;;;;;;;;;;;;4.04;100.00;103460.25;5118572;28;20357;-70
2024/01/27 00:53:54;;;;;;;;;;;;;;;4.08;100.00;103469.00;5113957;28;20036;-71
2024/01/27 00:56:19;;;;;;;;;;;;;;;4.07;100.00;103464.63;5100135;28;20226;-71
2024/01/27 00:58:44;;;;;;;;;;;;;;;4.07;100.00;103462.91;5118937;28;19916;-70
2024/01/27 01:01:09;;;;;;;;;;;;;;;4.10;100.00;103469.91;5118227;28;19915;-71
2024/01/27 01:03:35;;;;;;;;;;;;;;;4.13;100.00;103468.28;5118488;28;19968;-71
2024/01/27 01:06:00;;;;;;;;;;;;;;;4.11;100.00;103466.47;5118417;28;19919;-70
2024/01/27 01:08:26;;;;;;;;;;;;;;;4.07;100.00;103473.28;5118448;28;20254;-71
2024/01/27 01:10:51;;;;;;;;;;;;;;;4.07;100.00;103460.31;5118051;28;19915;-71
2024/01/27 01:13:16;;;;;;;;;;;;;;;4.09;100.00;103468.13;5118734;28;19916;-71
2024/01/27 01:15:41;;;;;;;;;;;;;;;4.11;100.00;103471.66;5117024;28;19987;-71
2024/01/27 01:18:07;;;;;;;;;;;;;;;4.06;100.00;103461.16;5117875;28;19915;-71
2024/01/27 01:20:32;;;;;;;;;;;;;;;4.04;100.00;103461.09;5118902;28;20112;-70
2024/01/27 01:22:58;;;;;;;;;;;;;;;4.06;100.00;103471.53;5117264;28;19999;-70
2024/01/27 01:25:23;;;;;;;;;;;;;;;4.04;100.00;103470.59;5118527;28;19922;-70
2024/01/27 01:27:49;;;;;;;;;;;;;;;4.04;100.00;103462.84;5117978;28;19947;-70
2024/01/27 01:30:14;;;;;;;;;;;;;;;4.01;100.00;103466.19;5117811;28;20353;-70
2024/01/27 01:32:40;;;;;;;;;;;;;;;3.94;100.00;103461.66;5118607;28;19923;-70
2024/01/27 01:35:05;;;;;;;;;;;;;;;3.90;100.00;103469.34;5117764;28;20124;-70
2024/01/27 01:37:30;;;;;;;;;;;;;;;3.84;100.00;103462.25;5118101;28;19954;-70
2024/01/27 01:39:56;;;;;;;;;;;;;;;3.80;100.00;103458.69;5117723;28;19963;-70
2024/01/27 01:42:24;;;;;;;;;;;;;;;3.79;100.00;103451.72;5099835;28;20231;-70
2024/01/27 01:44:50;;;;;;;;;;;;;;;3.78;100.00;103460.38;5117376;28;19994;-70
2024/01/27 01:47:15;;;;;;;;;;;;;;;3.83;100.00;103458.75;5117691;28;20160;-70
2024/01/27 01:49:41;;;;;;;;;;;;;;;3.82;100.00;103463.91;5117985;28;20219;-70
2024/01/27 01:52:06;;;;;;;;;;;;;;;3.84;100.00;103454.47;5116288;28;19923;-70
2024/01/27 01:54:32;;;;;;;;;;;;;;;3.83;100.00;103470.84;5117092;28;19927;-70
2024/01/27 01:56:58;;;;;;;;;;;;;;;3.82;100.00;103469.97;5116479;28;19982;-70
2024/01/27 01:59:23;;;;;;;;;;;;;;;3.83;100.00;103473.44;5117368;28;20239;-71
2024/01/27 02:01:48;;;;;;;;;;;;;;;3.81;100.00;103483.75;5117390;28;19926;-70
2024/01/27 02:04:14;;;;;;;;;;;;;;;3.73;100.00;103482.66;5116748;28;19919;-70
2024/01/27 02:06:39;;;;;;;;;;;;;;;3.68;100.00;103480.78;5116963;28;20181;-70
2024/01/27 02:09:05;;;;;;;;;;;;;;;3.62;100.00;103476.25;5116325;28;19915;-70
2024/01/27 02:11:30;;;;;;;;;;;;;;;3.60;100.00;103480.53;5111920;28;19926;-70
2024/01/27 02:13:55;;;;;;;;;;;;;;;3.58;100.00;103480.47;5094945;28;19916;-70
2024/01/27 02:16:21;;;;;;;;;;;;;;;3.56;100.00;103482.13;5109860;28;19920;-70
2024/01/27 02:18:46;;;;;;;;;;;;;;;3.50;100.00;103475.91;5117249;28;19990;-70
2024/01/27 02:21:12;;;;;;;;;;;;;;;3.48;100.00;103482.75;5116569;28;20242;-70
2024/01/27 02:23:37;;;;;;;;;;;;;;;3.43;100.00;103482.59;5117320;28;19954;-70
2024/01/27 02:26:02;;;;;;;;;;;;;;;3.37;100.00;103482.41;5115807;28;19926;-70
2024/01/27 02:28:27;;;;;;;;;;;;;;;3.32;100.00;103481.38;5116724;28;19955;-70
2024/01/27 02:30:53;;;;;;;;;;;;;;;3.31;100.00;103477.03;5106608;28;19986;-70
2024/01/27 02:33:18;;;;;;;;;;;;;;;3.35;100.00;103479.78;5116982;28;20183;-70
2024/01/27 02:35:43;;;;;;;;;;;;;;;3.32;100.00;103482.25;5116351;28;20858;-70
2024/01/27 02:38:09;;;;;;;;;;;;;;;3.26;100.00;103487.25;5116177;28;20011;-70
2024/01/27 02:40:34;;;;;;;;;;;;;;;3.23;100.00;103479.38;5113547;28;19916;-70
2024/01/27 02:42:59;;;;;;;;;;;;;;;3.20;100.00;103471.50;5116080;28;19919;-70
2024/01/27 02:45:24;;;;;;;;;;;;;;;3.16;100.00;103465.34;5116469;28;19920;-70
2024/01/27 02:47:49;;;;;;;;;;;;;;;3.20;100.00;103468.91;5115931;28;19916;-70
2024/01/27 02:50:15;;;;;;;;;;;;;;;3.21;100.00;103468.09;5116455;28;19922;-70
2024/01/27 02:52:40;;;;;;;;;;;;;;;3.16;100.00;103464.47;5108512;28;19920;-70
2024/01/27 02:55:05;;;;;;;;;;;;;;;3.08;100.00;103475.47;5115634;28;19916;-70
2024/01/27 02:57:31;;;;;;;;;;;;;;;2.97;100.00;103474.22;5116583;28;19920;-70
2024/01/27 02:59:56;;;;;;;;;;;;;;;2.90;100.00;103474.84;5115731;28;19984;-70
2024/01/27 03:02:21;;;;;;;;;;;;;;;2.89;100.00;103475.66;5115653;28;19950;-70
2024/01/27 03:04:46;;;;;;;;;;;;;;;2.90;100.00;103492.97;5116039;28;19916;-70
2024/01/27 03:07:12;;;;;;;;;;;;;;;2.85;100.00;103487.63;5115616;28;19943;-70
2024/01/27 03:09:37;;;;;;;;;;;;;;;2.83;100.00;103486.69;5115650;28;19930;-70
2024/01/27 03:12:02;;;;;;;;;;;;;;;2.82;100.00;103486.66;5115726;28;19969;-70
2024/01/27 03:14:28;;;;;;;;;;;;;;;2.87;100.00;103491.19;5115550;28;20158;-70
2024/01/27 03:16:54;;;;;;;;;;;;;;;2.89;100.00;103478.25;5115435;28;20166;-70
2024/01/27 03:19:19;;;;;;;;;;;;;;;2.92;100.00;103491.31;5115285;28;20119;-70
2024/01/27 03:21:45;;;;;;;;;;;;;;;2.96;100.00;103497.47;5115822;28;19920;-70
2024/01/27 03:24:10;;;;;;;;;;;;;;;2.92;100.00;103499.09;5115040;28;19951;-71
2024/01/27 03:26:35;;;;;;;;;;;;;;;2.85;100.00;103499.69;5115686;28;19912;-70
2024/01/27 03:29:00;;;;;;;;;;;;;;;2.77;100.00;103494.28;5114305;28;20207;-70
2024/01/27 03:31:33;;;;;;;;;;;;;;;2.75;100.00;103492.44;5106267;28;19958;-70
2024/01/27 03:33:59;;;;;;;;;;;;;;;2.78;100.00;103487.38;5103675;28;19919;-70
2024/01/27 03:36:24;;;;;;;;;;;;;;;2.79;100.00;103489.16;5115176;28;19987;-70
2024/01/27 03:38:49;;;;;;;;;;;;;;;2.83;100.00;103483.25;5114789;28;19920;-70
2024/01/27 03:41:14;;;;;;;;;;;;;;;2.84;100.00;103483.31;5110814;28;20157;-70
2024/01/27 03:43:39;;;;;;;;;;;;;;;2.85;100.00;103482.44;5100032;28;19920;-70
2024/01/27 03:46:05;;;;;;;;;;;;;;;2.84;100.00;103485.88;5114496;28;19923;-71
2024/01/27 03:48:30;;;;;;;;;;;;;;;2.87;100.00;103482.50;5114315;28;19924;-70
2024/01/27 03:50:56;;;;;;;;;;;;;;;2.84;100.00;103480.72;5115467;28;20118;-73
2024/01/27 03:53:21;;;;;;;;;;;;;;;2.79;100.00;103474.50;5115964;28;19995;-70
2024/01/27 03:55:46;;;;;;;;;;;;;;;2.79;100.00;103478.81;5115072;28;19912;-70
2024/01/27 03:58:11;;;;;;;;;;;;;;;2.79;100.00;103476.22;5115063;28;20147;-70
2024/01/27 04:00:36;;;;;;;;;;;;;;;2.81;100.00;103472.84;5114582;28;19927;-70
2024/01/27 04:03:02;;;;;;;;;;;;;;;2.79;100.00;103476.22;5114876;28;20092;-70
2024/01/27 04:05:29;;;;;;;;;;;;;;;2.76;100.00;103479.56;5115500;28;20141;-70
2024/01/27 04:07:54;;;;;;;;;;;;;;;2.71;100.00;103473.38;5114818;28;19924;-70
2024/01/27 04:10:20;;;;;;;;;;;;;;;2.67;100.00;103477.56;5115383;28;20237;-70
2024/01/27 04:12:45;;;;;;;;;;;;;;;2.67;100.00;103479.25;5115022;28;20239;-70
2024/01/27 04:15:10;;;;;;;;;;;;;;;2.68;100.00;103488.78;5119356;28;20148;-70
2024/01/27 04:17:39;;;;;;;;;;;;;;;2.69;100.00;103495.69;5121816;28;20215;-70
2024/01/27 04:20:05;;;;;;;;;;;;;;;2.69;100.00;103500.88;5121514;28;20241;-70
2024/01/27 04:22:31;;;;;;;;;;;;;;;2.65;100.00;103499.88;5122034;28;19946;-70
2024/01/27 04:24:56;;;;;;;;;;;;;;;2.59;100.00;103494.50;5121325;28;19919;-70
2024/01/27 04:27:22;;;;;;;;;;;;;;;2.59;100.00;103491.91;5121876;28;19968;-70
2024/01/27 04:29:47;;;;;;;;;;;;;;;2.59;100.00;103481.56;5121538;28;19942;-70
2024/01/27 04:32:12;;;;;;;;;;;;;;;2.62;100.00;103485.97;5121083;28;19931;-70
2024/01/27 04:34:38;;;;;;;;;;;;;;;2.58;100.00;103482.38;5122113;28;20249;-70
2024/01/27 04:37:03;;;;;;;;;;;;;;;2.61;100.00;103489.41;5120965;28;20119;-70
2024/01/27 04:39:29;;;;;;;;;;;;;;;2.62;100.00;103483.38;5121822;28;20116;-70
2024/01/27 04:41:54;;;;;;;;;;;;;;;2.59;100.00;103486.75;5120292;28;20205;-70
2024/01/27 04:44:20;;;;;;;;;;;;;;;2.53;100.00;103485.66;5121750;28;19924;-70
2024/01/27 04:46:45;;;;;;;;;;;;;;;2.49;100.00;103476.88;5121456;28;19920;-70
2024/01/27 04:49:11;;;;;;;;;;;;;;;2.45;100.00;103477.63;5120216;28;20336;-71
2024/01/27 04:51:36;;;;;;;;;;;;;;;2.45;100.00;103481.06;5121836;28;20286;-70
2024/01/27 04:54:01;;;;;;;;;;;;;;;2.47;100.00;103482.03;5120885;28;19920;-70
2024/01/27 04:56:26;;;;;;;;;;;;;;;2.48;100.00;103483.78;5121134;28;20009;-70
2024/01/27 04:58:52;;;;;;;;;;;;;;;2.46;100.00;103484.56;5102346;28;19920;-70
2024/01/27 05:01:17;;;;;;;;;;;;;;;2.41;100.00;103480.94;5121780;28;19923;-70
2024/01/27 05:03:42;;;;;;;;;;;;;;;2.36;100.00;103479.88;5121791;28;20155;-70
2024/01/27 05:06:08;;;;;;;;;;;;;;;2.34;100.00;103482.41;5121718;28;19923;-70
2024/01/27 05:08:35;;;;;;;;;;;;;;;2.29;100.00;103489.13;5120780;28;19924;-70
2024/01/27 05:11:00;;;;;;;;;;;;;;;2.30;100.00;103491.75;5121062;28;19938;-70
2024/01/27 05:13:25;;;;;;;;;;;;;;;2.31;100.00;103492.66;5121505;28;19920;-70
2024/01/27 05:15:50;;;;;;;;;;;;;;;2.27;100.00;103483.91;5120981;28;19963;-70
2024/01/27 05:18:16;;;;;;;;;;;;;;;2.24;100.00;103480.34;5121202;28;19920;-70
2024/01/27 05:20:41;;;;;;;;;;;;;;;2.23;100.00;103486.31;5121255;28;19924;-70
2024/01/27 05:23:06;;;;;;;;;;;;;;;2.27;100.00;103480.44;5120671;28;20116;-70
2024/01/27 05:25:31;;;;;;;;;;;;;;;2.23;100.00;103484.59;5119211;28;19919;-70
2024/01/27 05:27:57;;;;;;;;;;;;;;;2.24;100.00;103488.97;5117018;28;19924;-71
2024/01/27 05:30:22;;;;;;;;;;;;;;;2.25;100.00;103492.44;5117796;28;19926;-70
2024/01/27 05:32:47;;;;;;;;;;;;;;;2.22;100.00;103492.31;5117897;28;19951;-70
2024/01/27 05:35:12;;;;;;;;;;;;;;;2.17;100.00;103493.88;5117194;28;19938;-71
2024/01/27 05:37:39;;;;;;;;;;;;;;;2.14;100.00;103492.03;5117588;28;19947;-70
2024/01/27 05:40:05;;;;;;;;;;;;;;;2.14;100.00;103486.00;5117467;28;19974;-70
2024/01/27 05:42:31;;;;;;;;;;;;;;;2.14;100.00;103486.84;5117529;28;20037;-70
2024/01/27 05:44:56;;;;;;;;;;;;;;;2.17;100.00;103494.75;5117418;28;19997;-70
2024/01/27 05:47:21;;;;;;;;;;;;;;;2.15;100.00;103488.63;5117244;28;19950;-70
2024/01/27 05:49:46;;;;;;;;;;;;;;;2.09;100.00;103484.13;5117288;28;19924;-70
2024/01/27 05:52:12;;;;;;;;;;;;;;;2.06;100.00;103489.16;5116744;28;19919;-70
2024/01/27 05:54:39;;;;;;;;;;;;;;;2.05;100.00;103496.88;5117422;28;19919;-70
2024/01/27 05:57:04;;;;;;;;;;;;;;;2.02;100.00;103504.50;5116791;28;19920;-71
2024/01/27 05:59:29;;;;;;;;;;;;;;;2.00;100.00;103500.97;5117206;28;19946;-71
2024/01/27 06:01:55;;;;;;;;;;;;;;;1.95;100.00;103487.91;5116460;28;19919;-71
2024/01/27 06:04:20;;;;;;;;;;;;;;;1.97;100.00;103488.81;5117005;28;20188;-71
2024/01/27 06:06:45;;;;;;;;;;;;;;;1.96;100.00;103486.19;5116881;28;19919;-71
2024/01/27 06:09:11;;;;;;;;;;;;;;;1.91;100.00;103467.91;5116222;28;19939;-71
2024/01/27 06:11:36;;;;;;;;;;;;;;;1.89;100.00;103473.03;5117346;28;20134;-71
2024/01/27 06:14:01;;;;;;;;;;;;;;;1.89;100.00;103472.13;5116354;28;19977;-71
2024/01/27 06:16:26;;;;;;;;;;;;;;;1.82;100.00;103468.47;5116818;28;19926;-71
2024/01/27 06:18:53;;;;;;;;;;;;;;;1.80;100.00;103470.13;5116435;28;20038;-71
2024/01/27 06:21:18;;;;;;;;;;;;;;;1.76;100.00;103473.38;5096766;28;19915;-71
2024/01/27 06:23:43;;;;;;;;;;;;;;;1.75;100.00;103476.81;5108756;28;19979;-71
2024/01/27 06:26:09;;;;;;;;;;;;;;;1.72;100.00;103474.97;5116605;28;19916;-71
2024/01/27 06:28:34;;;;;;;;;;;;;;;1.69;100.00;103477.47;5116812;28;19924;-71
2024/01/27 06:31:00;;;;;;;;;;;;;;;1.67;100.00;103486.84;5116316;28;19923;-71
2024/01/27 06:33:25;;;;;;;;;;;;;;;1.65;100.00;103493.63;5116597;28;19927;-71
2024/01/27 06:35:51;;;;;;;;;;;;;;;1.66;100.00;103498.00;5116480;28;20080;-71
2024/01/27 06:38:16;;;;;;;;;;;;;;;1.67;100.00;103510.09;5117031;28;19923;-71
2024/01/27 06:40:41;;;;;;;;;;;;;;;1.67;100.00;103512.69;5116163;28;19973;-71
2024/01/27 06:43:06;;;;;;;;;;;;;;;1.66;100.00;103518.66;5116053;28;19994;-71
2024/01/27 06:45:32;;;;;;;;;;;;;;;1.68;100.00;103514.44;5115891;28;19912;-71
2024/01/27 06:47:57;;;;;;;;;;;;;;;1.67;100.00;103509.19;5116177;28;19916;-71
2024/01/27 06:50:23;;;;;;;;;;;;;;;1.67;100.00;103515.28;5116392;28;20138;-71
2024/01/27 06:52:48;;;;;;;;;;;;;;;1.73;100.00;103512.03;5116758;28;19919;-71
2024/01/27 06:55:13;;;;;;;;;;;;;;;1.73;100.00;103509.47;5115950;28;20243;-71
2024/01/27 06:57:40;;;;;;;;;;;;;;;1.70;100.00;103517.94;5116573;28;19919;-71
2024/01/27 07:00:06;;;;;;;;;;;;;;;1.69;100.00;103523.97;5115090;28;20183;-71
2024/01/27 07:02:31;;;;;;;;;;;;;;;1.67;100.00;103517.84;5115643;28;19920;-71
2024/01/27 07:04:56;;;;;;;;;;;;;;;1.66;100.00;103523.81;5097101;28;19947;-71
2024/01/27 07:07:23;;;;;;;;;;;;;;;1.71;100.00;103517.16;5116412;28;19915;-71
2024/01/27 07:09:48;;;;;;;;;;;;;;;1.76;100.00;103516.44;5115715;28;19923;-71
2024/01/27 07:12:14;;;;;;;;;;;;;;;1.79;100.00;103512.28;5115752;28;20194;-71
2024/01/27 07:14:39;;;;;;;;;;;;;;;1.80;100.00;103507.97;5116111;28;20203;-71
2024/01/27 07:17:05;;;;;;;;;;;;;;;1.78;100.00;103497.56;5115067;28;20122;-71
2024/01/27 07:19:30;;;;;;;;;;;;;;;1.83;100.00;103506.38;5116089;28;20212;-71
2024/01/27 07:21:55;;;;;;;;;;;;;;;1.82;100.00;103514.97;5115169;28;19926;-71
2024/01/27 07:24:21;;;;;;;;;;;;;;;1.81;100.00;103517.50;5097853;28;19916;-71
2024/01/27 07:26:46;;;;;;;;;;;;;;;1.84;100.00;103520.22;5115138;28;19916;-71
2024/01/27 07:29:11;;;;;;;;;;;;;;;1.84;100.00;103517.63;5114272;28;19924;-71
2024/01/27 07:31:36;;;;;;;;;;;;;;;1.85;100.00;103515.06;5115284;28;20189;-71
2024/01/27 07:34:02;;;;;;;;;;;;;;;1.89;100.00;103516.06;5115139;28;19919;-71
2024/01/27 07:36:32;;;;;;;;;;;;;;;1.87;100.00;103515.13;5114336;28;19961;-71
2024/01/27 07:38:57;;;;;;;;;;;;;;;1.85;100.00;103520.25;5114822;28;19923;-71
2024/01/27 07:41:23;;;;;;;;;;;;;;;1.84;100.00;103515.91;5115361;28;19923;-71
2024/01/27 07:43:48;;;;;;;;;;;;;;;1.83;100.00;103508.97;5115617;28;19983;-71
2024/01/27 07:46:13;;;;;;;;;;;;;;;1.86;100.00;103509.09;5114401;28;20222;-71
2024/01/27 07:48:38;;;;;;;;;;;;;;;1.87;100.00;103504.81;5114986;28;20227;-71
2024/01/27 07:51:03;;;;;;;;;;;;;;;1.89;100.00;103509.22;5114444;28;20189;-71
2024/01/27 07:53:29;;;;;;;;;;;;;;;1.92;100.00;103500.69;5113774;28;19916;-71
2024/01/27 07:55:56;;;;;;;;;;;;;;;1.92;100.00;103505.88;5113213;28;19911;-71
2024/01/27 07:58:21;;;;;;;;;;;;;;;1.92;100.00;103516.19;5113240;28;19915;-71
2024/01/27 08:00:46;;;;;;;;;;;;;;;1.88;100.00;103507.44;5113604;28;19919;-71
2024/01/27 08:03:11;;;;;;;;;;;;;;;1.89;100.00;103495.41;5112911;28;19916;-71
2024/01/27 08:05:37;;;;;;;;;;;;;;;1.89;100.00;103497.97;5096151;28;19915;-71
2024/01/27 08:08:02;;;;;;;;;;;;;;;1.94;100.00;103505.94;5113587;28;19919;-71
2024/01/27 08:10:27;;;;;;;;;;;;;;;1.96;100.00;103502.56;5114093;28;19923;-71
2024/01/27 08:12:53;;;;;;;;;;;;;;;1.96;100.00;103518.06;5113381;28;19923;-71
2024/01/27 08:15:18;;;;;;;;;;;;;;;1.98;100.00;103521.59;5114050;28;20267;-71
2024/01/27 08:17:43;;;;;;;;;;;;;;;2.00;100.00;103526.81;5096275;28;20196;-71
2024/01/27 08:20:09;;;;;;;;;;;;;;;2.00;100.00;103532.91;5114563;28;19956;-71
2024/01/27 08:22:34;;;;;;;;;;;;;;;2.02;100.00;103526.06;5114614;28;19916;-71
2024/01/27 08:24:59;;;;;;;;;;;;;;;2.06;100.00;103524.50;5114097;28;20124;-71
2024/01/27 08:27:25;;;;;;;;;;;;;;;2.06;100.00;103527.94;5115224;28;19920;-71
2024/01/27 08:29:50;;;;;;;;;;;;;;;2.09;100.00;103534.91;5114515;28;19965;-71
2024/01/27 08:32:16;;;;;;;;;;;;;;;2.11;100.00;103538.44;5114667;28;19931;-71
2024/01/27 08:34:41;;;;;;;;;;;;;;;2.14;100.00;103548.03;5114657;28;19919;-71
2024/01/27 08:37:14;;;;;;;;;;;;;;;2.18;100.00;103549.91;5114220;28;19923;-71
2024/01/27 08:39:39;;;;;;;;;;;;;;;2.20;100.00;103550.84;5107638;28;19991;-71
2024/01/27 08:42:04;;;;;;;;;;;;;;;2.23;100.00;103546.66;5108767;28;19919;-71
2024/01/27 08:44:29;;;;;;;;;;;;;;;2.23;100.00;103548.38;5112277;28;20219;-71
2024/01/27 08:46:55;;;;;;;;;;;;;;;2.21;100.00;103552.63;5111118;28;19920;-71
2024/01/27 08:49:20;;;;;;;;;;;;;;;2.26;100.00;103558.84;5113559;28;19963;-71
2024/01/27 08:51:45;;;;;;;;;;;;;;;2.26;100.00;103545.91;5113630;28;19920;-71
2024/01/27 08:54:10;;;;;;;;;;;;;;;2.31;100.00;103546.97;5112105;28;19997;-71
2024/01/27 08:56:39;;;;;;;;;;;;;;;2.35;100.00;103543.66;5112316;28;20020;-71
2024/01/27 08:59:04;;;;;;;;;;;;;;;2.39;100.00;103550.72;5112138;28;19935;-71
2024/01/27 09:01:29;;;;;;;;;;;;;;;2.44;100.00;103543.13;5114313;28;20084;-71
2024/01/27 09:03:55;;;;;;;;;;;;;;;2.49;100.00;103538.97;5115875;28;19912;-71
2024/01/27 09:06:20;;;;;;;;;;;;;;;2.50;100.00;103533.00;5099038;28;19908;-71
2024/01/27 09:08:45;;;;;;;;;;;;;;;2.54;100.00;103542.63;5106241;28;20119;-71
2024/01/27 09:11:11;;;;;;;;;;;;;;;2.58;100.00;103557.41;5087687;28;20281;-71
2024/01/27 09:13:36;;;;;;;;;;;;;;;2.59;100.00;103563.50;5090473;28;20112;-71
2024/01/27 09:16:01;;;;;;;;;;;;;;;2.61;100.00;103559.25;5091318;28;19920;-71
2024/01/27 09:18:27;;;;;;;;;;;;;;;2.64;100.00;103567.13;5088458;28;20022;-71
2024/01/27 09:20:53;;;;;;;;;;;;;;;2.65;100.00;103554.22;5085880;28;20000;-71
2024/01/27 09:23:18;;;;;;;;;;;;;;;2.68;100.00;103558.66;5089110;28;19943;-71
2024/01/27 09:25:43;;;;;;;;;;;;;;;2.68;100.00;103559.53;5092555;28;19931;-71
2024/01/27 09:28:08;;;;;;;;;;;;;;;2.72;100.00;103560.50;5095274;28;19920;-71
2024/01/27 09:30:34;;;;;;;;;;;;;;;2.78;100.00;103555.53;5096228;28;19965;-71
2024/01/27 09:32:59;;;;;;;;;;;;;;;2.80;100.00;103559.09;5095556;28;20061;-71
2024/01/27 09:35:24;;;;;;;;;;;;;;;2.84;100.00;103557.50;5096300;28;19913;-71
2024/01/27 09:37:49;;;;;;;;;;;;;;;2.87;100.00;103558.47;5095346;28;19955;-71
2024/01/27 09:40:14;;;;;;;;;;;;;;;2.91;100.00;103563.75;5095890;28;19923;-71
2024/01/27 09:42:45;;;;;;;;;;;;;;;2.94;100.00;103563.84;5095680;28;19920;-71
2024/01/27 09:45:10;;;;;;;;;;;;;;;3.00;100.00;103574.41;5095087;28;19923;-71
2024/01/27 09:47:36;;;;;;;;;;;;;;;3.01;100.00;103579.66;5094697;28;19920;-71
2024/01/27 09:50:02;;;;;;;;;;;;;;;3.05;100.00;103571.16;5093833;28;19916;-71
2024/01/27 09:52:27;;;;;;;;;;;;;;;3.07;100.00;103595.41;5095316;28;19969;-71
2024/01/27 09:54:53;;;;;;;;;;;;;;;3.10;100.00;103592.03;5093858;28;19920;-71
2024/01/27 09:57:20;;;;;;;;;;;;;;;3.14;100.00;103593.03;5094979;28;19916;-71
2024/01/27 09:59:47;;;;;;;;;;;;;;;3.18;100.00;103594.88;5096045;28;20192;-71
2024/01/27 10:02:13;;;;;;;;;;;;;;;3.24;100.00;103583.03;5093745;28;19927;-71
2024/01/27 10:04:41;;;;;;;;;;;;;;;3.29;100.00;103590.06;5092303;28;20192;-71
2024/01/27 10:07:06;;;;;;;;;;;;;;;3.35;100.00;103608.44;5094143;28;19943;-71
2024/01/27 10:09:33;;;;;;;;;;;;;;;3.40;100.00;103602.56;5100041;28;20158;-71
2024/01/27 10:12:00;;;;;;;;;;;;;;;3.43;100.00;103600.06;5092435;28;19924;-71
2024/01/27 10:14:26;;;;;;;;;;;;;;;3.50;100.00;103601.16;5096197;28;19920;-71
2024/01/27 10:16:51;;;;;;;;;;;;;;;3.56;100.00;103597.88;5096271;28;19928;-71
2024/01/27 10:19:17;;;;;;;;;;;;;;;3.60;100.00;103598.03;5095763;28;19927;-71
2024/01/27 10:21:43;;;;;;;;;;;;;;;3.69;100.00;103596.56;5097249;28;19946;-71
2024/01/27 10:24:09;;;;;;;;;;;;;;;3.72;100.00;103589.75;5098069;28;20207;-71
2024/01/27 10:26:34;;;;;;;;;;;;;;;3.78;100.00;103592.56;5097448;28;20302;-71
2024/01/27 10:29:01;;;;;;;;;;;;;;;3.83;100.00;103595.28;5095800;28;20235;-71
2024/01/27 10:31:30;;;;;;;;;;;;;;;3.86;100.00;103592.81;5094867;28;19919;-71
2024/01/27 10:33:56;;;;;;;;;;;;;;;3.90;100.00;103594.66;5095960;28;19927;-71
2024/01/27 10:36:21;;;;;;;;;;;;;;;3.95;100.00;103594.81;5096205;28;20108;-71
2024/01/27 10:38:47;;;;;;;;;;;;;;;3.99;100.00;103600.13;5096317;28;19927;-71
2024/01/27 10:41:18;;;;;;;;;;;;;;;4.04;100.00;103592.50;5091089;28;19920;-71
2024/01/27 10:43:44;;;;;;;;;;;;;;;4.07;100.00;103602.94;5076644;28;19920;-71
2024/01/27 10:46:10;;;;;;;;;;;;;;;4.09;100.00;103597.81;5096243;28;19958;-71
2024/01/27 10:48:36;;;;;;;;;;;;;;;4.13;100.00;103612.63;5095161;28;20216;-71
2024/01/27 10:51:07;;;;;;;;;;;;;;;4.17;100.00;103605.00;5086762;28;19958;-71
2024/01/27 10:53:35;;;;;;;;;;;;;;;4.20;100.00;103606.78;5105893;28;19920;-71
2024/01/27 10:56:01;;;;;;;;;;;;;;;4.24;100.00;103613.84;5089649;28;19919;-71
2024/01/27 10:58:28;;;;;;;;;;;;;;;4.27;100.00;103607.88;5065954;28;20122;-71
2024/01/27 11:00:53;;;;;;;;;;;;;;;4.30;100.00;103598.47;5087047;28;19920;-71
2024/01/27 11:03:19;;;;;;;;;;;;;;;4.34;100.00;103600.28;5097431;28;19923;-71
2024/01/27 11:05:46;;;;;;;;;;;;;;;4.36;100.00;103589.97;5100657;28;19920;-71
2024/01/27 11:08:12;;;;;;;;;;;;;;;4.40;100.00;103589.22;5098262;28;20417;-71
2024/01/27 11:10:38;;;;;;;;;;;;;;;4.46;100.00;103588.50;5095517;28;20490;-71
2024/01/27 11:13:04;;;;;;;;;;;;;;;4.50;100.00;103592.97;5095507;28;19928;-71
2024/01/27 11:15:29;;;;;;;;;;;;;;;4.52;100.00;103592.16;5091525;28;19946;-71
2024/01/27 11:18:02;;;;;;;;;;;;;;;4.54;100.00;103585.31;5089402;28;20211;-71
2024/01/27 11:20:27;;;;;;;;;;;;;;;4.57;100.00;103580.22;5091262;28;20268;-71
2024/01/27 11:22:54;;;;;;;;;;;;;;;4.62;100.00;103590.75;5094907;28;19920;-71
2024/01/27 11:25:19;;;;;;;;;;;;;;;4.64;100.00;103596.84;5090980;28;20219;-71
2024/01/27 11:27:46;;;;;;;;;;;;;;;4.65;100.00;103585.59;5094092;28;19949;-71
2024/01/27 11:30:33;;;;;;;;;;;;;;;4.68;100.00;103583.09;5094855;28;19924;-71
2024/01/27 11:33:01;;;;;;;;;;;;;;;4.73;100.00;103580.63;5093419;28;19981;-71
2024/01/27 11:35:26;;;;;;;;;;;;;;;4.75;100.00;103578.97;5093855;28;19942;-71
2024/01/27 11:37:52;;;;;;;;;;;;;;;4.76;100.00;103579.00;5091537;28;20211;-71
2024/01/27 11:40:17;;;;;;;;;;;;;;;4.75;100.00;103577.25;5094027;28;19927;-71
2024/01/27 11:42:42;;;;;;;;;;;;;;;4.77;100.00;103580.75;5092938;28;19935;-71
2024/01/27 11:45:08;;;;;;;;;;;;;;;4.80;100.00;103573.06;5090719;28;20927;-71
2024/01/27 11:47:34;;;;;;;;;;;;;;;4.84;100.00;103581.81;5090274;28;20254;-71
2024/01/27 11:49:59;;;;;;;;;;;;;;;4.86;100.00;103579.25;5091122;28;20223;-71
2024/01/27 11:52:25;;;;;;;;;;;;;;;4.89;100.00;103577.59;5090591;28;19924;-71
2024/01/27 11:54:56;;;;;;;;;;;;;;;4.93;100.00;103578.56;5088293;28;19920;-71
2024/01/27 11:57:22;;;;;;;;;;;;;;;4.95;100.00;103572.59;5092176;28;19982;-71
2024/01/27 11:59:47;;;;;;;;;;;;;;;4.97;100.00;103578.69;5095159;28;19935;-71
2024/01/27 12:02:13;;;;;;;;;;;;;;;4.98;100.00;103562.28;5090534;28;19920;-71
2024/01/27 12:04:38;;;;;;;;;;;;;;;5.01;100.00;103566.69;5091052;28;19973;-71
2024/01/27 12:07:03;;;;;;;;;;;;;;;5.03;100.00;103564.13;5092880;28;19982;-71
2024/01/27 12:09:28;;;;;;;;;;;;;;;5.04;100.00;103565.88;5096029;28;20212;-71
2024/01/27 12:11:54;;;;;;;;;;;;;;;5.06;100.00;103557.28;5098943;28;19974;-71
2024/01/27 12:14:19;;;;;;;;;;;;;;;5.07;100.00;103559.03;5110113;28;19924;-71
2024/01/27 12:16:44;;;;;;;;;;;;;;;5.07;100.00;103556.44;5109107;28;19916;-71
2024/01/27 12:19:11;;;;;;;;;;;;;;;5.08;100.00;103554.75;5109138;28;19919;-71
2024/01/27 12:21:36;;;;;;;;;;;;;;;5.10;100.00;103558.25;5109626;28;19948;-71
2024/01/27 12:24:01;;;;;;;;;;;;;;;5.12;100.00;103541.84;5110370;28;19981;-71
2024/01/27 12:26:30;;;;;;;;;;;;;;;5.17;100.00;103539.38;5109470;28;19981;-71